KCLE/CLE METAR and TAF weather

Enter ICAO airport designator
Station Type Date Time Source
KCLE METAR 2019/09/21 20:51 UTC NOAA

KCLE 212051Z 27005KT 10SM SCT045 SCT250 29/19 A3015 RMK AO2 SLP202 T02940194 58012


Station Type Date Time Source
KCLE Decoded METAR 2019/09/21 20:51 UTC NOAA

CLEVELAND-HOPKINS INTERNATIONAL , OH, United States (KCLE) 41-24N 081-51W 236M
Sep 21, 2019 - 04:51 PM EDT / 2019.09.21 2051 UTC
Wind: from the W (270 degrees) at 6 MPH (5 KT):0
Visibility: 10 mile(s):0
Sky conditions: partly cloudy
Temperature: 84.9 F (29.4 C)
Dew Point: 66.9 F (19.4 C)
Relative Humidity: 54%
Pressure (altimeter): 30.15 in. Hg (1020 hPa)
Pressure tendency: 0.04 inches (1.2 hPa) lower than three hours ago
ob: KCLE 212051Z 27005KT 10SM SCT045 SCT250 29/19 A3015 RMK AO2 SLP202 T02940194 58012
cycle: 21

Station Type Date Time Source
KCLE TAF 2019/09/21 21:10 UTC NOAA

TAF
AMD KCLE 212108Z 2121/2224 26005KT P6SM SCT050
FM220000 20008KT P6SM FEW050 BKN200
FM221400 22015G22KT P6SM SCT050 BKN170

Example: see airport list